sensor_id;sensor_type;location;lat;lon;timestamp;pressure;altitude;pressure_sealevel;temperature;humidity
70815;BME280;58428;49.478;10.986;2024-01-30T00:00:39;99919.66;;;2.55;100.00
70815;BME280;58428;49.478;10.986;2024-01-30T00:03:05;99912.78;;;2.59;100.00
70815;BME280;58428;49.478;10.986;2024-01-30T00:05:34;99914.41;;;2.60;100.00
70815;BME280;58428;49.478;10.986;2024-01-30T00:08:02;99907.44;;;2.59;100.00
70815;BME280;58428;49.478;10.986;2024-01-30T00:10:28;99909.31;;;2.58;100.00
70815;BME280;58428;49.478;10.986;2024-01-30T00:12:54;99910.09;;;2.59;100.00
70815;BME280;58428;49.478;10.986;2024-01-30T00:15:20;99905.59;;;2.59;100.00
70815;BME280;58428;49.478;10.986;2024-01-30T00:17:46;99903.97;;;2.58;100.00
70815;BME280;58428;49.478;10.986;2024-01-30T00:20:12;99911.19;;;2.58;100.00
70815;BME280;58428;49.478;10.986;2024-01-30T00:22:37;99908.97;;;2.55;100.00
70815;BME280;58428;49.478;10.986;2024-01-30T00:25:05;99908.63;;;2.52;100.00
70815;BME280;58428;49.478;10.986;2024-01-30T00:27:32;99907.47;;;2.48;100.00
70815;BME280;58428;49.478;10.986;2024-01-30T00:29:57;99904.59;;;2.49;100.00
70815;BME280;58428;49.478;10.986;2024-01-30T00:32:23;99900.31;;;2.48;100.00
70815;BME280;58428;49.478;10.986;2024-01-30T00:34:48;99894.38;;;2.46;100.00
70815;BME280;58428;49.478;10.986;2024-01-30T00:37:14;99898.91;;;2.46;100.00
70815;BME280;58428;49.478;10.986;2024-01-30T00:39:41;99896.22;;;2.46;100.00
70815;BME280;58428;49.478;10.986;2024-01-30T00:42:06;99898.66;;;2.47;100.00
70815;BME280;58428;49.478;10.986;2024-01-30T00:44:38;99897.28;;;2.45;100.00
70815;BME280;58428;49.478;10.986;2024-01-30T00:47:04;99896.94;;;2.41;100.00
70815;BME280;58428;49.478;10.986;2024-01-30T00:49:33;99901.94;;;2.38;100.00
70815;BME280;58428;49.478;10.986;2024-01-30T00:52:00;99895.38;;;2.29;100.00
70815;BME280;58428;49.478;10.986;2024-01-30T00:54:26;99895.94;;;2.31;100.00
70815;BME280;58428;49.478;10.986;2024-01-30T00:56:51;99900.34;;;2.37;100.00
70815;BME280;58428;49.478;10.986;2024-01-30T00:59:17;99896.97;;;2.30;100.00
70815;BME280;58428;49.478;10.986;2024-01-30T01:01:42;99898.06;;;2.29;100.00
70815;BME280;58428;49.478;10.986;2024-01-30T01:04:08;99897.25;;;2.28;100.00
70815;BME280;58428;49.478;10.986;2024-01-30T01:06:37;99898.06;;;2.29;100.00
70815;BME280;58428;49.478;10.986;2024-01-30T01:09:04;99899.09;;;2.28;100.00
70815;BME280;58428;49.478;10.986;2024-01-30T01:11:30;99898.63;;;2.31;100.00
70815;BME280;58428;49.478;10.986;2024-01-30T01:13:56;99900.72;;;2.29;100.00
70815;BME280;58428;49.478;10.986;2024-01-30T01:16:22;99898.50;;;2.26;100.00
70815;BME280;58428;49.478;10.986;2024-01-30T01:18:47;99889.47;;;2.27;100.00
70815;BME280;58428;49.478;10.986;2024-01-30T01:21:14;99885.16;;;2.26;100.00
70815;BME280;58428;49.478;10.986;2024-01-30T01:23:41;99887.50;;;2.22;100.00
70815;BME280;58428;49.478;10.986;2024-01-30T01:26:07;99892.50;;;2.19;100.00
70815;BME280;58428;49.478;10.986;2024-01-30T01:28:40;99901.09;;;2.21;100.00
70815;BME280;58428;49.478;10.986;2024-01-30T01:31:09;99894.59;;;2.17;100.00
70815;BME280;58428;49.478;10.986;2024-01-30T01:33:37;99890.41;;;2.21;100.00
70815;BME280;58428;49.478;10.986;2024-01-30T01:36:03;99900.53;;;2.19;100.00
70815;BME280;58428;49.478;10.986;2024-01-30T01:38:29;99891.78;;;2.23;100.00
70815;BME280;58428;49.478;10.986;2024-01-30T01:40:54;99883.44;;;2.20;100.00
70815;BME280;58428;49.478;10.986;2024-01-30T01:43:19;99878.44;;;2.23;100.00
70815;BME280;58428;49.478;10.986;2024-01-30T01:45:45;99876.00;;;2.22;100.00
70815;BME280;58428;49.478;10.986;2024-01-30T01:48:11;99868.00;;;2.22;100.00
70815;BME280;58428;49.478;10.986;2024-01-30T01:50:38;99870.78;;;2.27;100.00
70815;BME280;58428;49.478;10.986;2024-01-30T01:53:07;99868.34;;;2.25;100.00
70815;BME280;58428;49.478;10.986;2024-01-30T01:55:35;99867.03;;;2.28;100.00
70815;BME280;58428;49.478;10.986;2024-01-30T01:58:01;99874.41;;;2.21;100.00
70815;BME280;58428;49.478;10.986;2024-01-30T02:00:27;99857.53;;;2.20;100.00
70815;BME280;58428;49.478;10.986;2024-01-30T02:02:54;99878.81;;;2.16;100.00
70815;BME280;58428;49.478;10.986;2024-01-30T02:05:22;99882.91;;;2.07;100.00
70815;BME280;58428;49.478;10.986;2024-01-30T02:07:47;99884.31;;;2.09;100.00
70815;BME280;58428;49.478;10.986;2024-01-30T02:10:15;99882.22;;;2.11;100.00
70815;BME280;58428;49.478;10.986;2024-01-30T02:12:42;99874.19;;;2.11;100.00
70815;BME280;58428;49.478;10.986;2024-01-30T02:15:07;99879.19;;;2.08;100.00
70815;BME280;58428;49.478;10.986;2024-01-30T02:17:33;99878.28;;;2.02;100.00
70815;BME280;58428;49.478;10.986;2024-01-30T02:19:59;99864.94;;;2.02;100.00
70815;BME280;58428;49.478;10.986;2024-01-30T02:22:24;99868.41;;;2.03;100.00
70815;BME280;58428;49.478;10.986;2024-01-30T02:24:52;99861.81;;;2.05;100.00
70815;BME280;58428;49.478;10.986;2024-01-30T02:27:19;99855.41;;;2.06;100.00
70815;BME280;58428;49.478;10.986;2024-01-30T02:29:44;99859.94;;;2.06;100.00
70815;BME280;58428;49.478;10.986;2024-01-30T02:32:10;99849.50;;;2.04;100.00
70815;BME280;58428;49.478;10.986;2024-01-30T02:34:36;99857.28;;;2.06;100.00
70815;BME280;58428;49.478;10.986;2024-01-30T02:37:03;99859.03;;;2.00;100.00
70815;BME280;58428;49.478;10.986;2024-01-30T02:39:28;99871.56;;;2.00;100.00
70815;BME280;58428;49.478;10.986;2024-01-30T02:41:54;99869.47;;;2.02;100.00
70815;BME280;58428;49.478;10.986;2024-01-30T02:44:21;99868.06;;;1.99;100.00
70815;BME280;58428;49.478;10.986;2024-01-30T02:46:48;99871.00;;;1.98;100.00
70815;BME280;58428;49.478;10.986;2024-01-30T02:49:14;99876.13;;;1.88;100.00
70815;BME280;58428;49.478;10.986;2024-01-30T02:51:39;99863.34;;;1.90;100.00
70815;BME280;58428;49.478;10.986;2024-01-30T02:54:06;99874.34;;;1.93;100.00
70815;BME280;58428;49.478;10.986;2024-01-30T02:56:31;99861.84;;;1.94;100.00
70815;BME280;58428;49.478;10.986;2024-01-30T02:58:57;99865.31;;;1.94;100.00
70815;BME280;58428;49.478;10.986;2024-01-30T03:01:25;99864.59;;;1.99;100.00
70815;BME280;58428;49.478;10.986;2024-01-30T03:03:51;99862.25;;;2.02;100.00
70815;BME280;58428;49.478;10.986;2024-01-30T03:06:16;99856.59;;;1.99;100.00
70815;BME280;58428;49.478;10.986;2024-01-30T03:08:43;99866.81;;;2.02;100.00
70815;BME280;58428;49.478;10.986;2024-01-30T03:11:08;99865.16;;;2.01;100.00
70815;BME280;58428;49.478;10.986;2024-01-30T03:13:33;99857.38;;;1.99;100.00
70815;BME280;58428;49.478;10.986;2024-01-30T03:15:59;99857.38;;;1.99;100.00
70815;BME280;58428;49.478;10.986;2024-01-30T03:18:24;99857.38;;;1.99;100.00
70815;BME280;58428;49.478;10.986;2024-01-30T03:20:50;99852.31;;;1.98;100.00
70815;BME280;58428;49.478;10.986;2024-01-30T03:23:15;99845.09;;;1.98;100.00
70815;BME280;58428;49.478;10.986;2024-01-30T03:25:41;99850.22;;;2.00;100.00
70815;BME280;58428;49.478;10.986;2024-01-30T03:28:07;99852.63;;;2.01;100.00
70815;BME280;58428;49.478;10.986;2024-01-30T03:30:34;99854.84;;;2.04;100.00
70815;BME280;58428;49.478;10.986;2024-01-30T03:33:00;99850.28;;;2.05;100.00
70815;BME280;58428;49.478;10.986;2024-01-30T03:35:25;99854.84;;;2.04;100.00
70815;BME280;58428;49.478;10.986;2024-01-30T03:37:51;99856.47;;;2.05;100.00
70815;BME280;58428;49.478;10.986;2024-01-30T03:40:16;99851.13;;;2.05;100.00
70815;BME280;58428;49.478;10.986;2024-01-30T03:42:42;99856.69;;;2.04;100.00
70815;BME280;58428;49.478;10.986;2024-01-30T03:45:07;99854.03;;;2.04;100.00
70815;BME280;58428;49.478;10.986;2024-01-30T03:47:34;99856.69;;;2.04;100.00
70815;BME280;58428;49.478;10.986;2024-01-30T03:50:00;99866.81;;;2.02;100.00
70815;BME280;58428;49.478;10.986;2024-01-30T03:52:27;99869.25;;;2.03;100.00
70815;BME280;58428;49.478;10.986;2024-01-30T03:54:52;99863.28;;;2.01;100.00
70815;BME280;58428;49.478;10.986;2024-01-30T03:57:18;99861.69;;;2.00;100.00
70815;BME280;58428;49.478;10.986;2024-01-30T03:59:45;99865.75;;;2.03;100.00
70815;BME280;58428;49.478;10.986;2024-01-30T04:02:11;99862.25;;;2.02;100.00
70815;BME280;58428;49.478;10.986;2024-01-30T04:04:39;99858.31;;;2.05;100.00
70815;BME280;58428;49.478;10.986;2024-01-30T04:07:05;99855.97;;;2.08;100.00
70815;BME280;58428;49.478;10.986;2024-01-30T04:09:30;99855.75;;;2.10;100.00
70815;BME280;58428;49.478;10.986;2024-01-30T04:11:57;99852.28;;;2.09;100.00
70815;BME280;58428;49.478;10.986;2024-01-30T04:14:23;99854.94;;;2.09;100.00
70815;BME280;58428;49.478;10.986;2024-01-30T04:16:49;99861.47;;;2.02;100.00
70815;BME280;58428;49.478;10.986;2024-01-30T04:19:15;99859.94;;;2.06;100.00
70815;BME280;58428;49.478;10.986;2024-01-30T04:21:41;99858.19;;;2.11;100.00
70815;BME280;58428;49.478;10.986;2024-01-30T04:24:08;99857.63;;;2.09;100.00
70815;BME280;58428;49.478;10.986;2024-01-30T04:26:33;99859.34;;;2.15;100.00
70815;BME280;58428;49.478;10.986;2024-01-30T04:28:59;99855.59;;;2.16;100.00
70815;BME280;58428;49.478;10.986;2024-01-30T04:31:24;99859.41;;;2.20;100.00
70815;BME280;58428;49.478;10.986;2024-01-30T04:33:49;99862.09;;;2.20;100.00
70815;BME280;58428;49.478;10.986;2024-01-30T04:36:15;99864.75;;;2.20;100.00
70815;BME280;58428;49.478;10.986;2024-01-30T04:38:40;99863.94;;;2.19;100.00
70815;BME280;58428;49.478;10.986;2024-01-30T04:41:07;99859.91;;;2.17;100.00
70815;BME280;58428;49.478;10.986;2024-01-30T04:43:33;99860.00;;;2.22;100.00
70815;BME280;58428;49.478;10.986;2024-01-30T04:46:00;99863.00;;;2.25;100.00
70815;BME280;58428;49.478;10.986;2024-01-30T04:48:25;99865.56;;;2.20;100.00
70815;BME280;58428;49.478;10.986;2024-01-30T04:50:52;99874.41;;;2.21;100.00
70815;BME280;58428;49.478;10.986;2024-01-30T04:53:19;99871.63;;;2.16;100.00
70815;BME280;58428;49.478;10.986;2024-01-30T04:55:44;99864.53;;;2.21;100.00
70815;BME280;58428;49.478;10.986;2024-01-30T04:58:10;99871.59;;;2.27;100.00
70815;BME280;58428;49.478;10.986;2024-01-30T05:00:35;99875.06;;;2.28;100.00
70815;BME280;58428;49.478;10.986;2024-01-30T05:03:01;99871.16;;;2.19;100.00
70815;BME280;58428;49.478;10.986;2024-01-30T05:05:26;99878.44;;;2.23;100.00
70815;BME280;58428;49.478;10.986;2024-01-30T05:07:51;99880.41;;;2.28;100.00
70815;BME280;58428;49.478;10.986;2024-01-30T05:10:20;99886.41;;;2.35;100.00
70815;BME280;58428;49.478;10.986;2024-01-30T05:12:45;99885.34;;;2.36;100.00
70815;BME280;58428;49.478;10.986;2024-01-30T05:15:12;99882.44;;;2.37;100.00
70815;BME280;58428;49.478;10.986;2024-01-30T05:17:38;99883.75;;;2.35;100.00
70815;BME280;58428;49.478;10.986;2024-01-30T05:20:04;99885.69;;;2.39;100.00
70815;BME280;58428;49.478;10.986;2024-01-30T05:22:30;99881.25;;;2.45;100.00
70815;BME280;58428;49.478;10.986;2024-01-30T05:24:55;99890.31;;;2.44;100.00
70815;BME280;58428;49.478;10.986;2024-01-30T05:27:20;99889.84;;;2.47;100.00
70815;BME280;58428;49.478;10.986;2024-01-30T05:29:46;99888.13;;;2.41;100.00
70815;BME280;58428;49.478;10.986;2024-01-30T05:32:15;99894.50;;;2.40;100.00
70815;BME280;58428;49.478;10.986;2024-01-30T05:34:40;99889.66;;;2.37;100.00
70815;BME280;58428;49.478;10.986;2024-01-30T05:37:07;99897.44;;;2.38;100.00
70815;BME280;58428;49.478;10.986;2024-01-30T05:39:32;99884.66;;;2.40;100.00
70815;BME280;58428;49.478;10.986;2024-01-30T05:41:58;99888.38;;;2.39;100.00
70815;BME280;58428;49.478;10.986;2024-01-30T05:44:23;99894.50;;;2.40;100.00
70815;BME280;58428;49.478;10.986;2024-01-30T05:46:50;99892.56;;;2.35;100.00
70815;BME280;58428;49.478;10.986;2024-01-30T05:49:17;99898.06;;;2.29;100.00
70815;BME280;58428;49.478;10.986;2024-01-30T05:51:43;99898.41;;;2.32;100.00
70815;BME280;58428;49.478;10.986;2024-01-30T05:54:09;99894.19;;;2.36;100.00
70815;BME280;58428;49.478;10.986;2024-01-30T05:56:34;99893.94;;;2.38;100.00
70815;BME280;58428;49.478;10.986;2024-01-30T05:58:59;99895.09;;;2.42;100.00
70815;BME280;58428;49.478;10.986;2024-01-30T06:01:25;99896.59;;;2.38;100.00
70815;BME280;58428;49.478;10.986;2024-01-30T06:03:50;99902.44;;;2.35;100.00
70815;BME280;58428;49.478;10.986;2024-01-30T06:06:16;99902.59;;;2.28;100.00
70815;BME280;58428;49.478;10.986;2024-01-30T06:08:41;99896.75;;;2.31;100.00
70815;BME280;58428;49.478;10.986;2024-01-30T06:11:10;99900.34;;;2.37;100.00
70815;BME280;58428;49.478;10.986;2024-01-30T06:13:38;99905.69;;;2.37;100.00
70815;BME280;58428;49.478;10.986;2024-01-30T06:16:03;99902.78;;;2.38;100.00
70815;BME280;58428;49.478;10.986;2024-01-30T06:18:29;99906.34;;;2.44;100.00
70815;BME280;58428;49.478;10.986;2024-01-30T06:20:57;99902.13;;;2.48;100.00
70815;BME280;58428;49.478;10.986;2024-01-30T06:23:24;99905.38;;;2.50;100.00
70815;BME280;58428;49.478;10.986;2024-01-30T06:25:49;99902.59;;;2.56;100.00
70815;BME280;58428;49.478;10.986;2024-01-30T06:28:15;99908.50;;;2.58;100.00
70815;BME280;58428;49.478;10.986;2024-01-30T06:30:40;99896.75;;;2.59;100.00
70815;BME280;58428;49.478;10.986;2024-01-30T06:33:06;99900.25;;;2.59;100.00
70815;BME280;58428;49.478;10.986;2024-01-30T06:35:31;99899.13;;;2.56;100.00
70815;BME280;58428;49.478;10.986;2024-01-30T06:37:56;99899.13;;;2.56;100.00
70815;BME280;58428;49.478;10.986;2024-01-30T06:40:22;99898.63;;;2.58;100.00
70815;BME280;58428;49.478;10.986;2024-01-30T06:42:48;99901.28;;;2.58;100.00
70815;BME280;58428;49.478;10.986;2024-01-30T06:45:13;99900.50;;;2.58;100.00
70815;BME280;58428;49.478;10.986;2024-01-30T06:47:39;99897.53;;;2.43;100.00
70815;BME280;58428;49.478;10.986;2024-01-30T06:50:09;99899.97;;;2.45;100.00
70815;BME280;58428;49.478;10.986;2024-01-30T06:52:34;99899.47;;;2.48;100.00
70815;BME280;58428;49.478;10.986;2024-01-30T06:55:00;99897.13;;;2.51;100.00
70815;BME280;58428;49.478;10.986;2024-01-30T06:57:28;99901.34;;;2.47;100.00
70815;BME280;58428;49.478;10.986;2024-01-30T06:59:58;99903.09;;;2.42;100.00
70815;BME280;58428;49.478;10.986;2024-01-30T07:02:23;99904.38;;;2.39;100.00
70815;BME280;58428;49.478;10.986;2024-01-30T07:04:50;99906.50;;;2.37;100.00
70815;BME280;58428;49.478;10.986;2024-01-30T07:07:16;99905.44;;;2.38;100.00
70815;BME280;58428;49.478;10.986;2024-01-30T07:09:42;99908.69;;;2.40;100.00
70815;BME280;58428;49.478;10.986;2024-01-30T07:12:09;99912.16;;;2.41;100.00
70815;BME280;58428;49.478;10.986;2024-01-30T07:14:34;99912.81;;;2.48;100.00
70815;BME280;58428;49.478;10.986;2024-01-30T07:17:02;99913.66;;;2.48;100.00
70815;BME280;58428;49.478;10.986;2024-01-30T07:19:28;99912.97;;;2.41;100.00
70815;BME280;58428;49.478;10.986;2024-01-30T07:21:56;99918.88;;;2.43;100.00
70815;BME280;58428;49.478;10.986;2024-01-30T07:24:21;99911.78;;;2.49;100.00
70815;BME280;58428;49.478;10.986;2024-01-30T07:26:48;99924.53;;;2.58;100.00
70815;BME280;58428;49.478;10.986;2024-01-30T07:29:13;99922.19;;;2.61;100.00
70815;BME280;58428;49.478;10.986;2024-01-30T07:31:42;99924.94;;;2.66;100.00
70815;BME280;58428;49.478;10.986;2024-01-30T07:34:10;99926.44;;;2.74;100.00
70815;BME280;58428;49.478;10.986;2024-01-30T07:36:38;99925.47;;;2.80;100.00
70815;BME280;58428;49.478;10.986;2024-01-30T07:39:04;99929.50;;;2.82;100.00
70815;BME280;58428;49.478;10.986;2024-01-30T07:41:36;99931.94;;;2.84;100.00
70815;BME280;58428;49.478;10.986;2024-01-30T07:44:06;99945.44;;;2.89;100.00
70815;BME280;58428;49.478;10.986;2024-01-30T07:46:33;99941.91;;;2.88;100.00
70815;BME280;58428;49.478;10.986;2024-01-30T07:49:01;99934.25;;;2.92;100.00
70815;BME280;58428;49.478;10.986;2024-01-30T07:51:30;99937.81;;;2.97;100.00
70815;BME280;58428;49.478;10.986;2024-01-30T07:53:58;99934.75;;;3.05;100.00
70815;BME280;58428;49.478;10.986;2024-01-30T07:56:25;99934.97;;;3.03;100.00
70815;BME280;58428;49.478;10.986;2024-01-30T07:58:52;99936.38;;;3.06;100.00
70815;BME280;58428;49.478;10.986;2024-01-30T08:01:18;99941.41;;;3.19;100.00
70815;BME280;58428;49.478;10.986;2024-01-30T08:03:47;99938.91;;;3.28;100.00
70815;BME280;58428;49.478;10.986;2024-01-30T08:06:12;99938.06;;;3.44;100.00
70815;BME280;58428;49.478;10.986;2024-01-30T08:08:37;99935.25;;;3.51;100.00
70815;BME280;58428;49.478;10.986;2024-01-30T08:11:03;99932.91;;;3.54;100.00
70815;BME280;58428;49.478;10.986;2024-01-30T08:13:30;99940.19;;;3.59;100.00
70815;BME280;58428;49.478;10.986;2024-01-30T08:16:05;99941.25;;;3.58;100.00
70815;BME280;58428;49.478;10.986;2024-01-30T08:18:32;99941.91;;;3.65;100.00
70815;BME280;58428;49.478;10.986;2024-01-30T08:20:57;99939.28;;;3.69;100.00
70815;BME280;58428;49.478;10.986;2024-01-30T08:23:23;99941.72;;;3.71;100.00
70815;BME280;58428;49.478;10.986;2024-01-30T08:25:49;99934.34;;;3.78;100.00
70815;BME280;58428;49.478;10.986;2024-01-30T08:28:14;99938.47;;;3.85;100.00
70815;BME280;58428;49.478;10.986;2024-01-30T08:30:45;99927.91;;;3.95;100.00
70815;BME280;58428;49.478;10.986;2024-01-30T08:33:11;99932.06;;;4.07;100.00
70815;BME280;58428;49.478;10.986;2024-01-30T08:35:36;99928.47;;;4.18;100.00
70815;BME280;58428;49.478;10.986;2024-01-30T08:38:07;99930.22;;;4.29;100.00
70815;BME280;58428;49.478;10.986;2024-01-30T08:40:38;99926.84;;;4.38;100.00
70815;BME280;58428;49.478;10.986;2024-01-30T08:43:04;99934.19;;;4.48;100.00
70815;BME280;58428;49.478;10.986;2024-01-30T08:45:29;99931.31;;;4.54;100.00
70815;BME280;58428;49.478;10.986;2024-01-30T08:47:56;99934.88;;;4.60;100.00
70815;BME280;58428;49.478;10.986;2024-01-30T08:50:22;99934.44;;;4.68;100.00
70815;BME280;58428;49.478;10.986;2024-01-30T08:52:48;99924.31;;;4.75;100.00
70815;BME280;58428;49.478;10.986;2024-01-30T08:55:15;99932.66;;;4.78;100.00
70815;BME280;58428;49.478;10.986;2024-01-30T08:57:40;99933.41;;;4.74;100.00
70815;BME280;58428;49.478;10.986;2024-01-30T09:00:06;99928.38;;;4.77;100.00
70815;BME280;58428;49.478;10.986;2024-01-30T09:02:34;99923.66;;;4.89;100.00
70815;BME280;58428;49.478;10.986;2024-01-30T09:05:01;99923.28;;;5.07;100.00
70815;BME280;58428;49.478;10.986;2024-01-30T09:07:27;99925.97;;;5.07;100.00
70815;BME280;58428;49.478;10.986;2024-01-30T09:09:53;99923.81;;;5.04;100.00
70815;BME280;58428;49.478;10.986;2024-01-30T09:12:19;99927.41;;;5.14;100.00
70815;BME280;58428;49.478;10.986;2024-01-30T09:14:46;99926.34;;;5.15;100.00
70815;BME280;58428;49.478;10.986;2024-01-30T09:17:11;99930.03;;;5.09;100.00
70815;BME280;58428;49.478;10.986;2024-01-30T09:19:41;99924.31;;;5.27;100.00
70815;BME280;58428;49.478;10.986;2024-01-30T09:22:07;99926.06;;;5.47;100.00
70815;BME280;58428;49.478;10.986;2024-01-30T09:24:34;99928.63;;;5.69;100.00
70815;BME280;58428;49.478;10.986;2024-01-30T09:27:00;99932.81;;;5.81;100.00
70815;BME280;58428;49.478;10.986;2024-01-30T09:29:25;99930.97;;;5.91;100.00
70815;BME280;58428;49.478;10.986;2024-01-30T09:31:51;99931.56;;;5.98;100.00
70815;BME280;58428;49.478;10.986;2024-01-30T09:34:17;99932.66;;;6.02;100.00
70815;BME280;58428;49.478;10.986;2024-01-30T09:36:45;99927.00;;;5.99;100.00
70815;BME280;58428;49.478;10.986;2024-01-30T09:39:11;99931.56;;;5.98;100.00
70815;BME280;58428;49.478;10.986;2024-01-30T09:41:49;99926.19;;;5.98;100.00
70815;BME280;58428;49.478;10.986;2024-01-30T09:44:16;99917.94;;;6.10;100.00
70815;BME280;58428;49.478;10.986;2024-01-30T09:46:42;99919.84;;;6.14;100.00
70815;BME280;58428;49.478;10.986;2024-01-30T09:49:08;99922.41;;;5.94;100.00
70815;BME280;58428;49.478;10.986;2024-01-30T09:51:34;99927.25;;;5.92;100.00
70815;BME280;58428;49.478;10.986;2024-01-30T09:54:02;99927.78;;;5.94;100.00
70815;BME280;58428;49.478;10.986;2024-01-30T09:56:28;99925.09;;;5.94;100.00
70815;BME280;58428;49.478;10.986;2024-01-30T09:58:54;99929.19;;;6.07;100.00
70815;BME280;58428;49.478;10.986;2024-01-30T10:01:19;99928.25;;;6.32;100.00
70815;BME280;58428;49.478;10.986;2024-01-30T10:03:45;99925.38;;;6.54;100.00
70815;BME280;58428;49.478;10.986;2024-01-30T10:06:11;99924.59;;;6.63;100.00
70815;BME280;58428;49.478;10.986;2024-01-30T10:08:37;99929.44;;;6.61;100.00
70815;BME280;58428;49.478;10.986;2024-01-30T10:11:03;99915.72;;;6.67;100.00
70815;BME280;58428;49.478;10.986;2024-01-30T10:13:29;99924.13;;;6.86;100.00
70815;BME280;58428;49.478;10.986;2024-01-30T10:16:03;99913.91;;;6.83;100.00
70815;BME280;58428;49.478;10.986;2024-01-30T10:18:31;99906.66;;;6.88;100.00
70815;BME280;58428;49.478;10.986;2024-01-30T10:20:56;99911.81;;;7.09;100.00
70815;BME280;58428;49.478;10.986;2024-01-30T10:23:22;99911.81;;;7.24;100.00
70815;BME280;58428;49.478;10.986;2024-01-30T10:25:48;99916.38;;;7.24;100.00
70815;BME280;58428;49.478;10.986;2024-01-30T10:28:13;99913.97;;;7.37;100.00
70815;BME280;58428;49.478;10.986;2024-01-30T10:30:38;99906.97;;;7.31;100.00
70815;BME280;58428;49.478;10.986;2024-01-30T10:33:04;99912.63;;;7.49;100.00
70815;BME280;58428;49.478;10.986;2024-01-30T10:35:30;99907.78;;;7.46;100.00
70815;BME280;58428;49.478;10.986;2024-01-30T10:37:57;99911.00;;;7.58;100.00
70815;BME280;58428;49.478;10.986;2024-01-30T10:40:28;99910.44;;;7.66;100.00
70815;BME280;58428;49.478;10.986;2024-01-30T10:42:55;99902.66;;;7.74;100.00
70815;BME280;58428;49.478;10.986;2024-01-30T10:45:22;99901.03;;;7.69;100.00
70815;BME280;58428;49.478;10.986;2024-01-30T10:47:55;99895.66;;;7.69;100.00
70815;BME280;58428;49.478;10.986;2024-01-30T10:50:24;99894.00;;;7.77;100.00
70815;BME280;58428;49.478;10.986;2024-01-30T10:52:52;99898.59;;;7.62;100.00
70815;BME280;58428;49.478;10.986;2024-01-30T10:55:18;99902.91;;;7.68;100.00
70815;BME280;58428;49.478;10.986;2024-01-30T10:57:44;99898.84;;;7.85;100.00
70815;BME280;58428;49.478;10.986;2024-01-30T11:00:15;99899.34;;;7.97;100.00
70815;BME280;58428;49.478;10.986;2024-01-30T11:02:46;99897.97;;;8.05;100.00
70815;BME280;58428;49.478;10.986;2024-01-30T11:05:12;99897.44;;;8.03;100.00
70815;BME280;58428;49.478;10.986;2024-01-30T11:07:42;99892.91;;;8.13;100.00
70815;BME280;58428;49.478;10.986;2024-01-30T11:10:08;99907.09;;;8.28;100.00
70815;BME280;58428;49.478;10.986;2024-01-30T11:12:39;99896.56;;;8.37;100.00
70815;BME280;58428;49.478;10.986;2024-01-30T11:15:18;99890.28;;;8.51;100.00
70815;BME280;58428;49.478;10.986;2024-01-30T11:20:30;99873.78;;;8.67;100.00
70815;BME280;58428;49.478;10.986;2024-01-30T11:23:01;99880.69;;;8.83;100.00
70815;BME280;58428;49.478;10.986;2024-01-30T11:25:31;99875.75;;;8.95;100.00
70815;BME280;58428;49.478;10.986;2024-01-30T11:27:59;99870.81;;;9.02;100.00
70815;BME280;58428;49.478;10.986;2024-01-30T11:30:26;99871.59;;;9.07;100.00
70815;BME280;58428;49.478;10.986;2024-01-30T11:35:24;99858.78;;;9.22;100.00
70815;BME280;58428;49.478;10.986;2024-01-30T11:37:56;99863.03;;;9.33;100.00
70815;BME280;58428;49.478;10.986;2024-01-30T11:40:23;99853.03;;;9.34;100.00
70815;BME280;58428;49.478;10.986;2024-01-30T11:42:53;99861.84;;;9.11;100.00
70815;BME280;58428;49.478;10.986;2024-01-30T11:45:19;99849.31;;;9.25;100.00
70815;BME280;58428;49.478;10.986;2024-01-30T11:47:45;99850.34;;;9.34;100.00
70815;BME280;58428;49.478;10.986;2024-01-30T11:50:15;99845.19;;;9.37;100.00
70815;BME280;58428;49.478;10.986;2024-01-30T11:52:42;99846.69;;;9.48;100.00
70815;BME280;58428;49.478;10.986;2024-01-30T11:55:10;99840.97;;;9.54;100.00
70815;BME280;58428;49.478;10.986;2024-01-30T11:57:44;99837.88;;;9.66;100.00
70815;BME280;58428;49.478;10.986;2024-01-30T12:00:17;99827.59;;;9.68;100.00
70815;BME280;58428;49.478;10.986;2024-01-30T12:02:44;99836.22;;;9.70;100.00
70815;BME280;58428;49.478;10.986;2024-01-30T12:05:14;99825.72;;;9.63;100.00
70815;BME280;58428;49.478;10.986;2024-01-30T12:07:44;99837.69;;;9.57;100.00
70815;BME280;58428;49.478;10.986;2024-01-30T12:10:09;99836.25;;;9.65;100.00
70815;BME280;58428;49.478;10.986;2024-01-30T12:12:35;99821.59;;;9.71;100.00
70815;BME280;58428;49.478;10.986;2024-01-30T12:18:42;99809.25;;;9.88;100.00
70815;BME280;58428;49.478;10.986;2024-01-30T12:21:07;99813.28;;;9.91;100.00
70815;BME280;58428;49.478;10.986;2024-01-30T12:23:34;99806.81;;;9.92;100.00
70815;BME280;58428;49.478;10.986;2024-01-30T12:26:00;99805.06;;;10.00;100.00
70815;BME280;58428;49.478;10.986;2024-01-30T12:28:29;99796.84;;;10.10;100.00
70815;BME280;58428;49.478;10.986;2024-01-30T12:31:03;99793.84;;;10.12;100.00
70815;BME280;58428;49.478;10.986;2024-01-30T12:33:30;99792.47;;;10.14;100.00
70815;BME280;58428;49.478;10.986;2024-01-30T12:35:56;99794.34;;;10.14;100.00
70815;BME280;58428;49.478;10.986;2024-01-30T12:38:24;99791.09;;;10.17;100.00
70815;BME280;58428;49.478;10.986;2024-01-30T12:40:54;99788.63;;;10.20;100.00
70815;BME280;58428;49.478;10.986;2024-01-30T12:43:29;99787.59;;;10.16;100.00
70815;BME280;58428;49.478;10.986;2024-01-30T12:45:54;99779.06;;;10.04;100.00
70815;BME280;58428;49.478;10.986;2024-01-30T12:48:20;99776.16;;;10.01;100.00
70815;BME280;58428;49.478;10.986;2024-01-30T12:50:46;99778.84;;;10.01;100.00
70815;BME280;58428;49.478;10.986;2024-01-30T12:53:11;99778.34;;;9.99;100.00
70815;BME280;58428;49.478;10.986;2024-01-30T12:55:38;99774.34;;;10.15;100.00